• Join FlightAware (Why Join?)
  • Login
  • US Flag 
09:04AM EST


 

Airport Tracker/Info


-or-


 

Live Flight TrackerFlight Track Log ✈ EJA803 ✈ 13-Jun-2013 ✈ KFAT - KSMF

Flight Track Log - Related Links

Times and Time Zones

All times are in EDT time to prevent confusion due to time zone crossing. See the EJA803 flight status page for this flight to view local times or setup timezone preferences in your user account.

Time Position Orientation Groundspeed Altitude Reporting Facility
EDT Latitude Longitude Course Direction KTS MPH feet Rate Location/Type
08:16PM 36.9500 -119.9333 321° Northwest 301 346 12,800  Level Northern Cal TRACON
08:17PM 37.0167 -120.0000 321° Northwest 293 337 15,900 1,620 Climbing Northern Cal TRACON
08:18PM 37.0833 -120.0500 329° Northwest 343 395 16,000 60 Climbing Northern Cal TRACON
08:19PM 37.0975 -120.0622 325° Northwest 339 390 16,000  Level Oakland Center
08:20PM 37.1209 -120.0542 321° Northwest  Level FlightAware Approximate
08:20PM 37.1897 -120.1514 322° Northwest 348 400 16,000  Level Oakland Center
08:21PM 37.1790 -120.1123 321° Northwest  Level FlightAware Approximate
08:21PM 37.2658 -120.2225 323° Northwest 342 394 16,000  Level Oakland Center
08:22PM 37.3414 -120.2944 323° Northwest 340 391 16,000  Level Oakland Center
08:23PM 37.4178 -120.3672 323° Northwest 344 396 16,000 60 Level Oakland Center
08:23PM 37.4667 -120.4167 321° Northwest 343 395 16,100 60 Climbing Northern Cal TRACON
08:24PM 37.5500 -120.4833 328° Northwest 341 392 16,100 -60 Level Northern Cal TRACON
08:26PM 37.6333 -120.5667 322° Northwest 350 403 16,000  Descending Northern Cal TRACON
08:26PM 37.6433 -120.5858 303° West 343 395 16,100 60 Climbing Oakland Center
08:27PM 37.7000 -120.6500 318° Northwest 345 397 16,100  Level Northern Cal TRACON
08:28PM 37.7667 -120.7333 315° West 344 396 16,100 -240 Level Northern Cal TRACON
08:29PM 37.8333 -120.8167 315° West 343 395 15,700 -1,200 Descending Northern Cal TRACON
08:30PM 37.9000 -120.9000 315° West 332 382 13,800 -1,800 Descending Northern Cal TRACON
08:30PM 37.9319 -120.9306 323° Northwest 331 381 13,200 -1,620 Descending Oakland Center
08:31PM 37.9989 -121.0108 317° Northwest 331 381 11,500 -1,800 Descending Oakland Center
08:33PM 38.1000 -121.1333 316° Northwest 280 322 8,600 -1,440 Descending Northern Cal TRACON
08:34PM 38.1500 -121.2000 314° West 286 329 8,000 -300 Descending Northern Cal TRACON
08:35PM 38.2000 -121.2667 314° West 292 336 8,100 -360 Climbing Northern Cal TRACON
08:36PM 38.2667 -121.3333 322° Northwest 277 319 7,300 -1,080 Descending Northern Cal TRACON
08:37PM 38.3167 -121.4000 314° West 269 310 6,000 -1,020 Descending Northern Cal TRACON
08:38PM 38.3667 -121.4667 314° West 268 308 5,300 -960 Descending Northern Cal TRACON
08:39PM 38.3833 -121.5500 284° West 261 300 4,100 -1,200 Descending Northern Cal TRACON
08:40PM 38.4333 -121.6000 322° Northwest 271 312 3,000 -1,140 Descending Northern Cal TRACON
08:41PM 38.5167 -121.6000 360° North 260 299 1,900 -540 Descending Northern Cal TRACON
08:41PM 38.5469 -121.6308 321° Northwest 239 275 2,100 -60 Climbing Oakland Center
08:42PM 38.5989 -121.6125 15° North 190 219 1,800 -660 Descending Oakland Center
08:43PM 38.6167 -121.6000 29° Northeast 165 190 1,300 -1,020 Descending Northern Cal TRACON
08:43PM 38.6500 -121.6000 360° North 131 151 600 -660 Descending Northern Cal TRACON
08:44PM 38.6833 -121.6000 360° North 111 128 100 -540 Descending Northern Cal TRACON
08:46PM 38.6954 -121.5908 90° East  Level Estimated
08:53PM 38.6954 -121.5908 351° North  Level Estimated
08:54PM 38.6954 -121.5908 351° North  Level Estimated